Time;durP1;ratioP1;P1;durP2;ratioP2;P2;SDS_P1;SDS_P2;PMS_P1;PMS_P2;Temp;Humidity;BMP_temperature;BMP_pressure;BME280_temperature;BME280_humidity;BME280_pressure;Samples;Min_cycle;Max_cycle;Signal;HPM_P1;HPM_P2
2022/07/22 00:01:24;;;;;;;6.20;2.50;;;16.30;99.90;;;;;;5015349;28;20042;-69
2022/07/22 00:03:49;;;;;;;10.82;2.63;;;16.30;99.90;;;;;;5015182;28;20100;-70
2022/07/22 00:06:15;;;;;;;7.80;2.83;;;16.30;99.90;;;;;;5015185;28;20518;-69
2022/07/22 00:08:41;;;;;;;6.55;2.70;;;16.40;99.90;;;;;;5015598;28;20041;-69
2022/07/22 00:11:06;;;;;;;12.77;2.35;;;16.40;99.90;;;;;;5015525;28;20046;-69
2022/07/22 00:13:32;;;;;;;7.65;2.72;;;16.40;99.90;;;;;;5015248;28;20140;-69
2022/07/22 00:15:58;;;;;;;11.27;2.60;;;16.40;99.90;;;;;;5015127;28;20046;-70
2022/07/22 00:18:23;;;;;;;4.95;2.53;;;16.30;99.90;;;;;;5015166;28;20117;-69
2022/07/22 00:20:49;;;;;;;14.20;2.40;;;16.40;99.90;;;;;;5015005;28;20072;-70
2022/07/22 00:23:15;;;;;;;9.35;2.78;;;16.40;99.90;;;;;;5015101;28;20049;-69
2022/07/22 00:25:40;;;;;;;8.27;2.38;;;16.40;99.90;;;;;;5014498;28;20049;-69
2022/07/22 00:28:06;;;;;;;8.82;3.08;;;16.40;99.90;;;;;;5015430;28;20084;-69
2022/07/22 00:30:32;;;;;;;8.43;2.60;;;16.50;99.90;;;;;;5014955;28;20056;-69
2022/07/22 00:32:57;;;;;;;12.00;3.45;;;16.40;99.90;;;;;;5015015;28;20046;-70
2022/07/22 00:35:23;;;;;;;9.90;2.55;;;16.40;99.90;;;;;;5014900;28;20053;-69
2022/07/22 00:37:49;;;;;;;9.57;2.90;;;16.40;99.90;;;;;;5014861;28;20125;-69
2022/07/22 00:40:14;;;;;;;8.98;2.53;;;16.40;99.90;;;;;;5014650;28;20050;-69
2022/07/22 00:42:40;;;;;;;6.93;2.88;;;16.40;99.90;;;;;;5015029;28;20042;-69
2022/07/22 00:45:07;;;;;;;10.25;2.60;;;16.40;99.90;;;;;;5014617;28;20496;-69
2022/07/22 00:47:33;;;;;;;10.93;3.58;;;16.40;99.90;;;;;;5014847;28;20088;-69
2022/07/22 00:49:59;;;;;;;8.70;2.97;;;16.40;99.90;;;;;;5014662;28;20077;-69
2022/07/22 00:52:25;;;;;;;5.97;2.47;;;16.40;99.90;;;;;;5015776;28;20469;-69
2022/07/22 00:54:51;;;;;;;5.93;2.33;;;16.40;99.90;;;;;;5018551;28;20048;-70
2022/07/22 00:57:17;;;;;;;9.15;2.45;;;16.40;99.90;;;;;;5018656;28;20124;-69
2022/07/22 00:59:43;;;;;;;5.72;2.50;;;16.40;99.90;;;;;;5018643;28;20108;-69
2022/07/22 01:02:09;;;;;;;12.52;3.00;;;16.40;99.90;;;;;;5018410;28;20042;-69
2022/07/22 01:04:35;;;;;;;11.82;2.92;;;16.40;99.90;;;;;;5018151;28;20537;-69
2022/07/22 01:07:01;;;;;;;12.98;3.03;;;16.40;99.90;;;;;;5019110;28;20050;-69
2022/07/22 01:09:26;;;;;;;6.38;2.45;;;16.40;99.90;;;;;;5018393;28;20046;-69
2022/07/22 01:11:52;;;;;;;7.82;2.55;;;16.40;99.90;;;;;;5018416;28;20060;-69
2022/07/22 01:14:17;;;;;;;7.07;2.63;;;16.50;99.90;;;;;;5018406;28;20050;-69
2022/07/22 01:16:43;;;;;;;4.40;2.13;;;16.40;99.90;;;;;;5018434;28;20042;-70
2022/07/22 01:19:09;;;;;;;8.57;2.65;;;16.40;99.90;;;;;;5018236;28;20050;-69
2022/07/22 01:21:35;;;;;;;5.43;1.67;;;16.40;99.90;;;;;;5018454;28;20078;-69
2022/07/22 01:24:02;;;;;;;9.05;2.75;;;16.40;99.90;;;;;;5018223;28;20053;-69
2022/07/22 01:26:28;;;;;;;12.07;2.28;;;16.40;99.90;;;;;;5018532;28;20064;-69
2022/07/22 01:28:53;;;;;;;6.70;2.42;;;16.40;99.90;;;;;;5017798;28;20053;-69
2022/07/22 01:31:19;;;;;;;10.25;2.83;;;16.40;99.90;;;;;;5018152;28;20042;-69
2022/07/22 01:33:45;;;;;;;15.30;2.40;;;16.40;99.90;;;;;;5017940;28;20053;-69
2022/07/22 01:36:10;;;;;;;10.23;2.40;;;16.40;99.90;;;;;;5018421;28;20466;-69
2022/07/22 01:38:36;;;;;;;7.53;2.67;;;16.40;99.90;;;;;;5018267;28;20073;-69
2022/07/22 01:41:02;;;;;;;9.13;2.10;;;16.30;99.90;;;;;;5017936;28;20482;-69
2022/07/22 01:43:27;;;;;;;8.48;2.28;;;16.30;99.90;;;;;;5017802;28;20049;-69
2022/07/22 01:45:54;;;;;;;12.55;2.72;;;16.30;99.90;;;;;;5017809;28;20053;-69
2022/07/22 01:48:22;;;;;;;6.72;2.55;;;16.30;99.90;;;;;;5017583;28;20454;-69
2022/07/22 01:50:48;;;;;;;11.15;3.15;;;16.20;99.90;;;;;;5016901;28;20060;-70
2022/07/22 01:53:14;;;;;;;7.90;1.95;;;16.30;99.90;;;;;;5017346;28;20454;-69
2022/07/22 01:55:40;;;;;;;4.55;1.98;;;16.30;99.90;;;;;;5017777;28;20057;-69
2022/07/22 01:58:06;;;;;;;6.78;1.95;;;16.30;99.90;;;;;;5018082;28;20128;-70
2022/07/22 02:00:32;;;;;;;7.28;2.13;;;16.30;99.90;;;;;;5017576;28;20069;-70
2022/07/22 02:02:58;;;;;;;9.18;2.33;;;16.30;99.90;;;;;;5017235;28;20053;-69
2022/07/22 02:05:24;;;;;;;6.80;2.40;;;16.30;99.90;;;;;;5015379;28;20045;-69
2022/07/22 02:07:50;;;;;;;2.83;1.58;;;16.20;99.90;;;;;;5017906;28;20133;-70
2022/07/22 02:10:15;;;;;;;4.70;1.77;;;16.20;99.90;;;;;;5017367;28;20050;-69
2022/07/22 02:12:41;;;;;;;7.20;2.38;;;16.20;99.90;;;;;;5017273;28;20096;-70
2022/07/22 02:15:08;;;;;;;12.32;2.75;;;16.20;99.90;;;;;;5017214;28;20471;-70
2022/07/22 02:17:34;;;;;;;6.28;1.90;;;16.20;99.90;;;;;;5017028;28;20117;-69
2022/07/22 02:20:00;;;;;;;5.63;2.13;;;16.10;99.90;;;;;;5017094;28;20124;-69
2022/07/22 02:22:26;;;;;;;7.53;2.47;;;16.10;99.90;;;;;;5016867;28;20108;-69
2022/07/22 02:24:51;;;;;;;6.65;1.70;;;16.10;99.90;;;;;;5017319;28;20097;-70
2022/07/22 02:27:17;;;;;;;6.65;1.80;;;16.10;99.90;;;;;;5016839;28;20046;-70
2022/07/22 02:29:42;;;;;;;3.92;1.77;;;16.10;99.90;;;;;;5016970;28;20553;-69
2022/07/22 02:32:08;;;;;;;5.07;1.60;;;16.10;99.90;;;;;;5017347;28;20076;-70
2022/07/22 02:34:34;;;;;;;3.38;1.27;;;16.10;99.90;;;;;;5016890;28;20042;-69
2022/07/22 02:36:59;;;;;;;6.38;2.08;;;16.10;99.90;;;;;;5016760;28;20116;-69
2022/07/22 02:39:25;;;;;;;9.23;1.83;;;16.10;99.90;;;;;;5016684;28;20041;-69
2022/07/22 02:41:51;;;;;;;8.43;1.92;;;16.10;99.90;;;;;;5016724;28;20418;-69
2022/07/22 02:44:16;;;;;;;7.13;2.00;;;16.00;99.90;;;;;;5016620;28;20084;-69
2022/07/22 02:46:42;;;;;;;6.78;2.05;;;16.10;99.90;;;;;;5016548;28;20053;-69
2022/07/22 02:49:07;;;;;;;4.38;2.03;;;16.10;99.90;;;;;;5015786;28;20081;-69
2022/07/22 02:51:33;;;;;;;4.55;2.00;;;16.10;99.90;;;;;;5016632;28;20379;-69
2022/07/22 02:53:59;;;;;;;6.07;1.85;;;16.10;99.90;;;;;;5016802;28;20371;-69
2022/07/22 02:56:24;;;;;;;9.10;2.10;;;16.00;99.90;;;;;;5016446;28;20127;-69
2022/07/22 02:58:52;;;;;;;5.68;1.95;;;16.00;99.90;;;;;;5016406;28;20050;-69
2022/07/22 03:01:19;;;;;;;5.78;1.75;;;16.00;99.90;;;;;;5016389;28;20085;-69
2022/07/22 03:03:45;;;;;;;8.32;1.52;;;16.10;99.90;;;;;;5016295;28;20101;-69
2022/07/22 03:06:10;;;;;;;7.43;1.70;;;16.00;99.90;;;;;;5016102;28;20471;-70
2022/07/22 03:08:38;;;;;;;5.15;1.50;;;16.00;99.90;;;;;;5016239;28;20052;-69
2022/07/22 03:11:04;;;;;;;5.70;1.85;;;15.90;99.90;;;;;;5016531;28;20406;-69
2022/07/22 03:13:29;;;;;;;5.00;1.40;;;15.90;99.90;;;;;;5016435;28;20049;-69
2022/07/22 03:15:55;;;;;;;8.30;2.28;;;16.00;99.90;;;;;;5015610;28;20116;-69
2022/07/22 03:18:20;;;;;;;5.10;1.63;;;16.00;99.90;;;;;;5016579;28;20125;-70
2022/07/22 03:20:46;;;;;;;5.57;2.00;;;15.90;99.90;;;;;;5016419;28;20394;-69
2022/07/22 03:23:12;;;;;;;5.35;1.40;;;16.00;99.90;;;;;;5015962;28;20041;-69
2022/07/22 03:25:38;;;;;;;6.75;1.65;;;15.90;99.90;;;;;;5015962;28;20132;-69
2022/07/22 03:28:04;;;;;;;4.38;1.60;;;16.00;99.90;;;;;;5015961;28;20386;-69
2022/07/22 03:30:30;;;;;;;5.70;1.58;;;15.90;99.90;;;;;;5015728;28;20053;-69
2022/07/22 03:32:56;;;;;;;4.03;1.40;;;16.00;99.90;;;;;;5014900;28;20484;-69
2022/07/22 03:35:22;;;;;;;3.70;1.38;;;16.00;99.90;;;;;;5015570;28;20378;-69
2022/07/22 03:37:47;;;;;;;4.82;1.88;;;16.00;99.90;;;;;;5015966;28;20103;-70
2022/07/22 03:40:13;;;;;;;5.90;1.20;;;16.00;99.90;;;;;;5015797;28;20050;-69
2022/07/22 03:42:38;;;;;;;3.20;1.10;;;15.90;99.90;;;;;;5016137;28;20042;-69
2022/07/22 03:45:04;;;;;;;4.30;1.38;;;15.90;99.90;;;;;;5015533;28;20057;-69
2022/07/22 03:47:30;;;;;;;5.15;1.58;;;15.90;99.90;;;;;;5016026;28;20096;-69
2022/07/22 03:49:58;;;;;;;3.75;1.88;;;15.90;99.90;;;;;;5014288;28;20042;-69
2022/07/22 03:52:24;;;;;;;12.63;1.45;;;15.90;99.90;;;;;;5015272;28;20053;-69
2022/07/22 03:54:49;;;;;;;3.00;1.15;;;15.90;99.90;;;;;;5015975;28;20046;-70
2022/07/22 03:57:15;;;;;;;5.13;1.85;;;15.90;99.90;;;;;;5015425;28;20534;-69
2022/07/22 03:59:41;;;;;;;3.45;1.15;;;15.90;99.90;;;;;;5015338;28;20053;-69
2022/07/22 04:02:06;;;;;;;5.18;1.80;;;15.90;99.90;;;;;;5015343;28;20077;-69
2022/07/22 04:04:32;;;;;;;5.10;1.52;;;15.90;99.90;;;;;;5015755;28;20038;-69
2022/07/22 04:06:57;;;;;;;4.63;1.30;;;15.80;99.90;;;;;;5015257;28;20042;-69
2022/07/22 04:09:23;;;;;;;8.40;2.08;;;15.80;99.90;;;;;;5015049;28;20050;-69
2022/07/22 04:11:50;;;;;;;5.15;1.45;;;15.80;99.90;;;;;;5015281;28;20406;-69
2022/07/22 04:14:16;;;;;;;5.35;1.40;;;15.80;99.90;;;;;;5014196;28;20108;-69
2022/07/22 04:16:43;;;;;;;4.22;1.65;;;15.90;99.90;;;;;;5015085;28;20038;-69
2022/07/22 04:19:09;;;;;;;2.53;1.10;;;15.90;99.90;;;;;;5015161;28;20050;-70
2022/07/22 04:21:35;;;;;;;4.72;1.42;;;15.90;99.90;;;;;;5015156;28;20074;-69
2022/07/22 04:24:01;;;;;;;6.32;1.40;;;15.90;99.90;;;;;;5015110;28;20122;-69
2022/07/22 04:26:26;;;;;;;8.25;1.73;;;15.80;99.90;;;;;;5014601;28;20053;-69
2022/07/22 04:28:52;;;;;;;5.28;1.50;;;15.80;99.90;;;;;;5014839;28;20065;-69
2022/07/22 04:31:18;;;;;;;4.18;1.17;;;15.80;99.90;;;;;;5015102;28;20454;-70
2022/07/22 04:33:43;;;;;;;4.03;1.63;;;15.90;99.90;;;;;;5015249;28;20053;-69
2022/07/22 04:36:09;;;;;;;3.83;1.40;;;15.90;99.90;;;;;;5015509;28;20050;-69
2022/07/22 04:38:34;;;;;;;3.38;1.30;;;16.00;99.90;;;;;;5015313;28;20054;-69
2022/07/22 04:41:00;;;;;;;6.15;1.63;;;15.90;99.90;;;;;;5014809;28;20042;-69
2022/07/22 04:43:26;;;;;;;7.10;1.45;;;15.90;99.90;;;;;;5014861;28;20084;-70
2022/07/22 04:45:51;;;;;;;3.40;1.55;;;15.90;99.90;;;;;;5015356;28;20107;-69
2022/07/22 04:48:17;;;;;;;3.00;1.42;;;15.90;99.90;;;;;;5014914;28;20108;-69
2022/07/22 04:50:44;;;;;;;8.77;1.70;;;16.00;99.90;;;;;;5014801;28;20053;-69
2022/07/22 04:53:09;;;;;;;4.28;1.45;;;16.00;99.90;;;;;;5015031;28;20057;-69
2022/07/22 04:55:35;;;;;;;6.60;1.85;;;16.00;99.90;;;;;;5015395;28;20061;-69
2022/07/22 04:58:01;;;;;;;5.47;1.70;;;16.10;99.90;;;;;;5014767;28;20470;-69
2022/07/22 05:00:26;;;;;;;6.75;1.17;;;16.10;99.90;;;;;;5014730;28;20046;-69
2022/07/22 05:02:52;;;;;;;4.85;1.55;;;16.10;99.90;;;;;;5015155;28;20378;-69
2022/07/22 05:05:17;;;;;;;2.95;1.40;;;16.10;99.90;;;;;;5014809;28;20042;-69
2022/07/22 05:07:43;;;;;;;5.93;1.50;;;16.10;99.90;;;;;;5014793;28;20107;-69
2022/07/22 05:10:09;;;;;;;7.15;1.63;;;16.20;99.90;;;;;;5014599;28;20462;-69
2022/07/22 05:12:35;;;;;;;7.00;2.10;;;16.20;99.90;;;;;;5014654;28;20490;-69
2022/07/22 05:15:02;;;;;;;4.75;1.40;;;16.30;99.90;;;;;;5015154;28;20057;-69
2022/07/22 05:17:27;;;;;;;6.10;1.73;;;16.30;99.90;;;;;;5014587;28;20108;-69
2022/07/22 05:19:53;;;;;;;4.85;1.77;;;16.30;99.90;;;;;;5014641;28;20050;-69
2022/07/22 05:22:19;;;;;;;6.95;1.65;;;16.40;99.90;;;;;;5014826;28;20048;-69
2022/07/22 05:24:45;;;;;;;5.53;1.17;;;16.30;99.90;;;;;;5014674;28;20425;-69
2022/07/22 05:27:10;;;;;;;5.25;1.42;;;16.50;99.90;;;;;;5014508;28;20045;-69
2022/07/22 05:29:36;;;;;;;2.78;1.48;;;16.50;99.90;;;;;;5014819;28;20046;-69
2022/07/22 05:32:02;;;;;;;2.67;1.45;;;16.50;99.90;;;;;;5014661;28;20088;-69
2022/07/22 05:34:27;;;;;;;6.85;1.73;;;16.50;99.90;;;;;;5015048;28;20038;-69
2022/07/22 05:36:53;;;;;;;3.75;1.40;;;16.50;99.90;;;;;;5014668;28;20046;-69
2022/07/22 05:39:18;;;;;;;3.22;1.20;;;16.60;99.90;;;;;;5016848;28;20081;-69
2022/07/22 05:41:44;;;;;;;4.55;1.27;;;16.70;99.90;;;;;;5017752;28;20045;-69
2022/07/22 05:44:10;;;;;;;12.40;1.80;;;16.70;99.90;;;;;;5017754;28;20382;-69
2022/07/22 05:46:35;;;;;;;8.05;1.35;;;16.80;99.90;;;;;;5017969;28;20127;-69
2022/07/22 05:49:01;;;;;;;3.50;1.80;;;16.90;99.90;;;;;;5018233;28;20061;-69
2022/07/22 05:51:27;;;;;;;5.53;1.92;;;16.90;99.90;;;;;;5017702;28;20046;-69
2022/07/22 05:53:52;;;;;;;8.48;1.45;;;17.00;99.90;;;;;;5017882;28;20049;-69
2022/07/22 05:56:18;;;;;;;7.07;1.17;;;16.90;99.90;;;;;;5017727;28;20038;-69
2022/07/22 05:58:43;;;;;;;6.32;1.70;;;17.00;99.90;;;;;;5017528;28;20574;-69
2022/07/22 06:01:09;;;;;;;4.72;1.75;;;17.00;99.90;;;;;;5018034;28;20348;-69
2022/07/22 06:03:35;;;;;;;3.90;1.42;;;17.10;99.90;;;;;;5017841;28;20049;-69
2022/07/22 06:06:02;;;;;;;5.35;1.15;;;17.10;99.90;;;;;;5017328;28;20128;-69
2022/07/22 06:08:28;;;;;;;5.93;1.10;;;17.20;99.90;;;;;;5017384;28;20045;-69
2022/07/22 06:10:54;;;;;;;4.03;1.88;;;17.20;99.90;;;;;;5017331;28;20060;-69
2022/07/22 06:13:19;;;;;;;2.92;1.42;;;17.20;99.90;;;;;;5017183;28;20054;-69
2022/07/22 06:15:45;;;;;;;4.45;1.52;;;17.30;99.90;;;;;;5017787;28;20091;-69
2022/07/22 06:18:11;;;;;;;4.40;1.48;;;17.30;99.90;;;;;;5017185;28;20107;-69
2022/07/22 06:20:37;;;;;;;4.82;1.65;;;17.40;99.90;;;;;;5017719;28;20435;-69
2022/07/22 06:23:03;;;;;;;21.02;1.73;;;17.40;99.90;;;;;;5017101;28;20053;-69
2022/07/22 06:25:28;;;;;;;3.80;1.27;;;17.40;99.90;;;;;;5017207;28;20486;-69
2022/07/22 06:27:54;;;;;;;2.47;1.17;;;17.40;99.90;;;;;;5017020;28;20049;-70
2022/07/22 06:30:20;;;;;;;4.57;1.20;;;17.40;99.90;;;;;;5016646;28;20107;-70
2022/07/22 06:32:46;;;;;;;3.85;1.35;;;17.50;99.90;;;;;;5016935;28;20049;-69
2022/07/22 06:35:11;;;;;;;6.28;1.30;;;17.50;99.90;;;;;;5017460;28;20050;-70
2022/07/22 06:37:37;;;;;;;5.20;1.80;;;17.60;99.90;;;;;;5016936;28;20038;-69
2022/07/22 06:40:03;;;;;;;4.10;1.52;;;17.70;99.90;;;;;;5016679;28;20038;-69
2022/07/22 06:42:28;;;;;;;5.25;1.20;;;17.70;99.90;;;;;;5015665;28;20045;-70
2022/07/22 06:44:54;;;;;;;5.53;1.02;;;17.80;99.90;;;;;;5016708;28;20049;-69
2022/07/22 06:47:20;;;;;;;2.97;1.35;;;17.90;99.90;;;;;;5016868;28;20038;-69
2022/07/22 06:49:45;;;;;;;2.70;1.40;;;17.90;99.90;;;;;;5016337;28;20108;-70
2022/07/22 06:52:11;;;;;;;7.22;1.48;;;17.90;99.90;;;;;;5016573;28;20046;-70
2022/07/22 06:54:36;;;;;;;9.55;1.83;;;17.90;99.90;;;;;;5016403;28;20049;-70
2022/07/22 06:57:02;;;;;;;3.47;1.63;;;17.90;99.90;;;;;;5016342;28;20061;-69
2022/07/22 06:59:27;;;;;;;4.28;1.60;;;18.00;99.90;;;;;;5016136;28;20080;-69
2022/07/22 07:01:53;;;;;;;5.25;1.77;;;18.10;99.90;;;;;;5016372;28;20033;-70
2022/07/22 07:04:19;;;;;;;2.65;1.10;;;18.20;99.90;;;;;;5016801;28;20053;-69
2022/07/22 07:06:45;;;;;;;3.50;1.33;;;18.40;99.90;;;;;;5016334;28;20467;-69
2022/07/22 07:09:10;;;;;;;10.10;1.65;;;18.40;99.90;;;;;;5016126;28;20107;-70
2022/07/22 07:11:36;;;;;;;9.77;1.50;;;18.40;99.90;;;;;;5016190;28;20053;-69
2022/07/22 07:14:02;;;;;;;4.60;1.00;;;18.50;99.90;;;;;;5016640;28;20041;-70
2022/07/22 07:16:28;;;;;;;4.20;1.40;;;18.50;99.90;;;;;;5016292;28;20465;-69
2022/07/22 07:18:54;;;;;;;6.18;1.83;;;18.50;99.90;;;;;;5016405;28;20054;-70
2022/07/22 07:21:19;;;;;;;5.85;1.38;;;18.50;99.90;;;;;;5016007;28;20107;-70
2022/07/22 07:23:45;;;;;;;5.03;1.38;;;18.60;99.90;;;;;;5015978;28;20050;-70
2022/07/22 07:26:11;;;;;;;1.83;1.02;;;18.60;99.90;;;;;;5015889;28;20056;-69
2022/07/22 07:28:36;;;;;;;4.80;1.17;;;18.70;99.90;;;;;;5015682;28;20050;-69
2022/07/22 07:31:02;;;;;;;3.95;1.20;;;18.80;99.90;;;;;;5015648;28;20045;-70
2022/07/22 07:33:28;;;;;;;5.28;1.13;;;18.90;99.90;;;;;;5015770;28;20060;-69
2022/07/22 07:35:54;;;;;;;2.70;0.90;;;18.90;99.90;;;;;;5015815;28;20128;-69
2022/07/22 07:38:20;;;;;;;5.93;1.50;;;19.00;99.90;;;;;;5016263;28;20382;-70
2022/07/22 07:40:45;;;;;;;5.38;1.60;;;19.10;99.90;;;;;;5015534;28;20106;-69
2022/07/22 07:43:11;;;;;;;5.63;1.00;;;19.20;99.90;;;;;;5016117;28;20054;-69
2022/07/22 07:45:36;;;;;;;3.78;1.25;;;19.20;99.90;;;;;;5016153;28;20050;-70
2022/07/22 07:48:03;;;;;;;3.30;1.48;;;19.30;99.90;;;;;;5015879;28;20451;-69
2022/07/22 07:50:30;;;;;;;9.07;1.63;;;19.30;99.90;;;;;;5015961;28;20077;-69
2022/07/22 07:52:56;;;;;;;6.40;1.23;;;19.30;99.90;;;;;;5015335;28;20058;-70
2022/07/22 07:55:21;;;;;;;5.65;1.08;;;19.30;99.90;;;;;;5015396;28;20042;-69
2022/07/22 07:57:48;;;;;;;2.47;0.90;;;19.40;99.90;;;;;;5015751;28;20038;-69
2022/07/22 08:00:15;;;;;;;2.53;0.82;;;19.30;99.90;;;;;;5015816;28;20050;-69
2022/07/22 08:02:41;;;;;;;6.32;1.52;;;19.30;99.90;;;;;;5014729;28;20037;-69
2022/07/22 08:05:08;;;;;;;8.65;1.42;;;19.20;99.90;;;;;;5015143;28;20463;-70
2022/07/22 08:07:34;;;;;;;7.78;1.77;;;19.30;99.90;;;;;;5015318;28;20116;-70
2022/07/22 08:10:00;;;;;;;2.83;0.98;;;19.30;99.90;;;;;;5015186;28;20045;-70
2022/07/22 08:12:25;;;;;;;3.28;1.02;;;19.30;99.90;;;;;;5015130;28;20496;-70
2022/07/22 08:14:51;;;;;;;4.18;0.88;;;19.30;99.90;;;;;;5015581;28;20069;-70
2022/07/22 08:17:16;;;;;;;5.47;1.45;;;19.40;99.90;;;;;;5014956;28;20485;-69
2022/07/22 08:19:42;;;;;;;4.68;1.30;;;19.40;99.90;;;;;;5015551;28;20077;-70
2022/07/22 08:22:08;;;;;;;5.25;1.00;;;19.50;99.90;;;;;;5015090;28;20072;-69
2022/07/22 08:24:33;;;;;;;1.17;0.68;;;19.50;99.90;;;;;;5015590;28;20049;-70
2022/07/22 08:26:59;;;;;;;4.88;1.13;;;19.50;99.90;;;;;;5015468;28;20486;-70
2022/07/22 08:29:25;;;;;;;3.40;1.38;;;19.60;99.90;;;;;;5015330;28;20482;-70
2022/07/22 08:31:51;;;;;;;2.95;1.17;;;19.60;99.90;;;;;;5015333;28;20050;-69
2022/07/22 08:34:17;;;;;;;2.45;0.88;;;19.50;99.90;;;;;;5015009;28;20528;-70
2022/07/22 08:36:43;;;;;;;5.15;1.30;;;19.30;99.90;;;;;;5014924;28;20085;-70
2022/07/22 08:39:08;;;;;;;4.70;0.88;;;19.40;99.90;;;;;;5014926;28;20112;-70
2022/07/22 08:41:36;;;;;;;4.95;0.90;;;19.50;99.90;;;;;;5014761;28;20093;-70
2022/07/22 08:44:04;;;;;;;6.63;1.15;;;19.60;99.90;;;;;;5015444;28;20046;-70
2022/07/22 08:46:30;;;;;;;3.40;1.00;;;19.50;99.90;;;;;;5014903;28;20085;-70
2022/07/22 08:48:56;;;;;;;2.83;0.90;;;19.60;99.90;;;;;;5014770;28;20135;-70
2022/07/22 08:51:21;;;;;;;3.25;0.90;;;19.50;99.90;;;;;;5014982;28;20359;-70
2022/07/22 08:53:47;;;;;;;3.67;1.10;;;19.50;99.90;;;;;;5014431;28;20049;-70
2022/07/22 08:56:13;;;;;;;5.45;1.45;;;19.50;99.90;;;;;;5014004;28;20042;-70
2022/07/22 08:58:40;;;;;;;6.55;1.10;;;19.50;99.90;;;;;;5015071;28;20418;-70
2022/07/22 09:01:12;;;;;;;5.10;1.30;;;19.50;99.90;;;;;;5014707;28;20054;-70
2022/07/22 09:04:04;;;;;;;9.48;1.33;;;19.60;99.90;;;;;;5014708;28;20042;-70
2022/07/22 09:06:35;;;;;;;3.13;1.00;;;19.80;99.90;;;;;;5010647;28;20065;-69
2022/07/22 09:09:04;;;;;;;2.97;1.00;;;20.10;99.90;;;;;;5014970;28;20052;-70
2022/07/22 09:11:31;;;;;;;2.20;0.93;;;20.30;99.90;;;;;;5014793;28;20398;-70
2022/07/22 09:13:58;;;;;;;1.60;0.80;;;20.30;99.90;;;;;;5016452;28;20050;-69
2022/07/22 09:16:42;;;;;;;4.65;1.35;;;20.50;99.90;;;;;;5018907;28;20108;-70
2022/07/22 09:19:09;;;;;;;1.90;0.80;;;20.70;99.90;;;;;;5018133;28;20042;-70
2022/07/22 09:21:36;;;;;;;6.72;1.65;;;20.60;99.90;;;;;;5018221;28;20050;-70
2022/07/22 09:24:03;;;;;;;3.35;0.80;;;20.70;99.90;;;;;;5018097;28;20050;-70
2022/07/22 09:26:36;;;;;;;2.88;0.80;;;20.60;99.90;;;;;;5018161;28;20049;-70
2022/07/22 09:29:04;;;;;;;3.08;1.25;;;20.50;99.90;;;;;;5017865;28;20069;-70
2022/07/22 09:31:34;;;;;;;3.40;0.90;;;20.30;99.90;;;;;;5018252;28;20125;-70
2022/07/22 09:34:01;;;;;;;4.82;0.90;;;20.30;99.90;;;;;;5018097;28;20049;-70
2022/07/22 09:36:27;;;;;;;3.60;1.35;;;20.10;99.90;;;;;;5017988;28;20088;-70
2022/07/22 09:38:53;;;;;;;3.00;1.00;;;20.10;99.90;;;;;;5017095;28;20042;-70
2022/07/22 09:41:20;;;;;;;2.08;0.90;;;19.90;99.90;;;;;;5017207;28;20057;-70
2022/07/22 09:43:46;;;;;;;3.67;0.90;;;19.80;99.90;;;;;;5017799;28;20462;-70
2022/07/22 09:46:11;;;;;;;11.02;1.58;;;19.70;99.90;;;;;;5017757;28;20122;-70
2022/07/22 09:48:38;;;;;;;4.97;1.33;;;19.70;99.90;;;;;;5017765;28;20046;-70
2022/07/22 09:51:05;;;;;;;3.63;0.77;;;19.80;99.90;;;;;;5017932;28;20092;-70
2022/07/22 09:53:31;;;;;;;1.98;0.85;;;19.60;99.90;;;;;;5017882;28;20046;-70
2022/07/22 09:55:58;;;;;;;3.40;1.17;;;19.60;99.90;;;;;;5017662;28;20053;-70
2022/07/22 09:58:25;;;;;;;2.70;0.90;;;19.40;99.90;;;;;;5017617;28;20041;-70
2022/07/22 10:00:52;;;;;;;3.75;1.10;;;19.40;99.90;;;;;;5017359;28;20130;-70
2022/07/22 10:03:25;;;;;;;6.20;0.90;;;19.50;99.90;;;;;;5017458;28;20041;-70
2022/07/22 10:05:51;;;;;;;3.03;0.77;;;19.60;99.90;;;;;;5017588;28;20056;-70
2022/07/22 10:08:17;;;;;;;2.17;0.93;;;19.60;99.90;;;;;;5017395;28;20354;-70
2022/07/22 10:10:43;;;;;;;3.88;1.00;;;19.60;99.90;;;;;;5017048;28;20042;-71
2022/07/22 10:13:09;;;;;;;4.43;1.23;;;19.50;99.90;;;;;;5017183;28;20053;-70
2022/07/22 10:15:36;;;;;;;2.92;1.02;;;19.50;99.90;;;;;;5016925;28;20140;-70
2022/07/22 10:18:16;;;;;;;2.30;1.00;;;19.50;99.90;;;;;;5017023;28;20057;-70
2022/07/22 10:20:42;;;;;;;3.13;1.00;;;19.50;99.90;;;;;;5017542;28;20363;-70
2022/07/22 10:23:10;;;;;;;1.73;0.82;;;19.50;99.90;;;;;;5017005;28;20049;-70
2022/07/22 10:25:49;;;;;;;3.83;0.73;;;19.50;99.90;;;;;;5016458;28;20042;-70
2022/07/22 10:28:27;;;;;;;1.70;0.82;;;19.40;99.90;;;;;;5017240;28;20061;-70
2022/07/22 10:31:07;;;;;;;2.35;0.73;;;19.50;99.90;;;;;;5016974;28;20046;-70
2022/07/22 10:33:36;;;;;;;1.65;0.70;;;19.60;99.90;;;;;;5016949;28;20038;-70
2022/07/22 10:36:04;;;;;;;4.03;1.00;;;19.70;99.90;;;;;;5016918;28;20386;-70
2022/07/22 10:38:31;;;;;;;2.80;0.90;;;19.70;99.90;;;;;;5016942;28;20049;-70
2022/07/22 10:41:01;;;;;;;3.05;0.98;;;19.80;99.90;;;;;;5017360;28;20046;-70
2022/07/22 10:43:44;;;;;;;1.90;0.60;;;19.90;99.90;;;;;;5016298;28;20056;-70
2022/07/22 10:46:10;;;;;;;1.38;0.80;;;19.80;99.90;;;;;;4982577;28;20066;-70
2022/07/22 10:48:36;;;;;;;2.20;0.70;;;19.80;99.90;;;;;;5015947;28;20128;-70
2022/07/22 10:51:10;;;;;;;4.63;0.77;;;19.80;99.90;;;;;;5016510;28;20133;-70
2022/07/22 10:53:51;;;;;;;4.22;1.17;;;19.80;99.90;;;;;;5016786;28;20042;-70
2022/07/22 10:56:33;;;;;;;6.93;1.23;;;20.00;99.90;;;;;;5017134;28;20359;-70
2022/07/22 10:59:13;;;;;;;2.75;0.85;;;20.20;99.90;;;;;;5016378;28;20068;-69
2022/07/22 11:01:42;;;;;;;3.30;1.02;;;20.50;99.90;;;;;;5016462;28;20115;-70
2022/07/22 11:04:09;;;;;;;1.70;0.70;;;20.60;99.90;;;;;;5017262;28;20042;-70
2022/07/22 11:06:35;;;;;;;0.88;0.55;;;20.90;99.90;;;;;;5016584;28;20406;-69
2022/07/22 11:09:04;;;;;;;2.05;0.60;;;21.00;99.90;;;;;;5015956;28;20069;-70
2022/07/22 11:11:33;;;;;;;1.75;0.70;;;21.20;99.90;;;;;;5016309;28;20037;-69
2022/07/22 11:13:59;;;;;;;2.88;0.80;;;21.50;99.90;;;;;;5016073;28;20065;-70
2022/07/22 11:16:26;;;;;;;1.92;0.80;;;21.80;99.90;;;;;;5016205;28;20375;-70
2022/07/22 11:18:58;;;;;;;2.20;0.85;;;22.00;99.90;;;;;;5016062;28;20117;-70
2022/07/22 11:21:25;;;;;;;2.75;0.60;;;22.10;99.90;;;;;;5016091;28;20038;-70
2022/07/22 11:23:54;;;;;;;3.47;0.75;;;22.10;99.90;;;;;;5015967;28;20137;-70
2022/07/22 11:26:44;;;;;;;1.75;0.70;;;22.20;99.90;;;;;;5015796;28;20042;-70
2022/07/22 11:29:16;;;;;;;2.90;0.57;;;22.20;99.90;;;;;;5016154;28;20054;-69
2022/07/22 11:31:42;;;;;;;5.82;1.10;;;22.20;99.90;;;;;;5016026;28;20096;-71
2022/07/22 11:34:10;;;;;;;1.63;0.70;;;22.00;99.90;;;;;;5016380;28;20038;-70
2022/07/22 11:36:39;;;;;;;3.58;0.80;;;22.00;99.70;;;;;;5015517;28;20435;-70
2022/07/22 11:39:06;;;;;;;2.53;0.90;;;21.90;99.90;;;;;;5016452;28;20127;-70
2022/07/22 11:41:32;;;;;;;2.05;0.77;;;21.90;99.90;;;;;;5015546;28;20063;-69
2022/07/22 11:43:59;;;;;;;1.33;0.60;;;21.80;99.90;;;;;;5016043;28;20041;-70
2022/07/22 11:46:26;;;;;;;1.15;0.50;;;21.60;99.90;;;;;;5016203;28;20046;-70
2022/07/22 11:48:53;;;;;;;1.15;0.60;;;21.80;99.90;;;;;;5015633;28;20061;-70
2022/07/22 11:51:19;;;;;;;1.75;0.88;;;21.80;99.90;;;;;;5016012;28;20046;-69
2022/07/22 11:53:45;;;;;;;1.02;0.63;;;21.90;99.90;;;;;;5014293;28;20057;-70
2022/07/22 11:56:11;;;;;;;3.40;0.70;;;22.00;99.90;;;;;;5015547;28;20041;-70
2022/07/22 11:58:49;;;;;;;1.50;0.60;;;22.10;99.90;;;;;;5015561;28;20054;-70
2022/07/22 12:01:17;;;;;;;4.85;1.00;;;22.20;99.90;;;;;;5015347;28;20120;-70
2022/07/22 12:03:48;;;;;;;1.55;0.63;;;22.30;99.90;;;;;;5015061;28;20053;-70
2022/07/22 12:06:16;;;;;;;1.92;0.70;;;22.30;99.00;;;;;;5015203;28;20038;-70
2022/07/22 12:08:47;;;;;;;2.67;0.90;;;22.10;99.90;;;;;;5015334;28;20042;-71
2022/07/22 12:11:15;;;;;;;0.47;0.40;;;22.20;99.00;;;;;;5015210;28;20045;-70
2022/07/22 12:13:43;;;;;;;1.98;0.85;;;22.20;99.90;;;;;;5015404;28;20133;-70
2022/07/22 12:16:19;;;;;;;1.65;0.60;;;22.30;99.90;;;;;;5014910;28;20480;-70
2022/07/22 12:18:54;;;;;;;1.50;0.80;;;22.30;99.40;;;;;;5014972;28;20065;-70
2022/07/22 12:21:21;;;;;;;2.95;1.08;;;22.40;99.90;;;;;;5015187;28;20046;-70
2022/07/22 12:23:51;;;;;;;0.98;0.60;;;22.40;99.60;;;;;;5015142;28;20053;-71
2022/07/22 12:26:17;;;;;;;1.10;0.57;;;22.50;99.90;;;;;;5015222;28;20038;-70
2022/07/22 12:28:42;;;;;;;4.10;0.65;;;22.70;99.90;;;;;;5016041;28;20450;-70
2022/07/22 12:31:08;;;;;;;3.50;0.70;;;22.90;99.90;;;;;;5015073;28;20053;-70
2022/07/22 12:33:34;;;;;;;2.72;0.90;;;23.00;99.90;;;;;;5015033;28;20097;-70
2022/07/22 12:36:05;;;;;;;0.52;0.50;;;23.10;99.90;;;;;;5015038;28;20042;-70
2022/07/22 12:38:31;;;;;;;2.30;0.70;;;23.10;99.90;;;;;;5014987;28;20169;-70
2022/07/22 12:41:17;;;;;;;3.90;0.82;;;23.00;99.90;;;;;;5015565;28;20042;-70
2022/07/22 12:43:43;;;;;;;2.97;0.73;;;23.00;99.90;;;;;;5015039;28;20046;-70